Huvudsida
METAR-TAF:

METAR-TAF

Flygplatser :

Iqaluit Airport

Iqaluit, Nunavut, Kanada

latitud: 63-45N, longitud: 068-33W, höjd: 34 m

Aktuellt väderrapport

Denna rapport gjordes för 52 minuter sedan, klockan 00:00 UTC
Vind 12 kt från nord/nordväst
Temperatur 15°C
Fuktighet 51%
Tryck 1020 hPa
Sikt: 48.3 km
Brutna moln på en höjd av 30000 ft

METAR: CYFB 220000Z 33012KT 30SM BKN300 15/05 A3013 RMK CI6 SLP205

Tid: 20:52 (00:52 UTC)

Väderprognos

Denna rapport gjordes för 1 timme och 11 minuter sedan, klockan 23:41 UTC
Prognos gäller från 22 kl. 00 UTC till 22 kl. 24 UTC
Vind 15 kt från nordväst
Sikt: 10 km
Spridda moln på en höjd av 24000 ft
Blir
från 22 kl. 02 UTC till 22 kl. 04 UTC
Vind 8 kt från nord/nordväst
Från 22 kl. 1500 UTC
Vind 12 kt från väst/nordväst
Sikt: 10 km
Brutna moln på en höjd av 5000 ft

TAF: CYFB 212341Z 2200/2224 32015KT P6SM SCT240 BECMG 2202/2204 34008KT FM221500 30012KT P6SM BKN050 RMK NXT FCST BY 220600Z

Aktuella väderrapporter och prognoser från 4000 flygplatser (METAR- och TAF-rapporter).

De tillgängliga stationerna syns som gula och röda prickar på kartan.

För musen över prickarna för att se namnen på stationerna.

Klicka sedan för att få väderrapporter och prognoser.

För att ändra kartan: Klicka på de gröna knapparna med ett svart kors på för att zooma in; den gröna knappen med ett streck på för att zooma ut; eller på de gröna pilarna för angränsande kartor.


METAR-TAF: